createdAt,value
2022-08-30T00:02:17.028Z,101514.59
2022-08-30T00:04:43.418Z,101523.81
2022-08-30T00:07:10.676Z,101514.97
2022-08-30T00:09:37.011Z,101522.44
2022-08-30T00:12:04.323Z,101529.72
2022-08-30T00:14:30.675Z,101522.44
2022-08-30T00:16:57.110Z,101524.28
2022-08-30T00:19:24.282Z,101521.78
2022-08-30T00:21:50.650Z,101524.56
2022-08-30T00:24:17.041Z,101528.63
2022-08-30T00:26:43.394Z,101520.22
2022-08-30T00:29:11.733Z,101527.09
2022-08-30T00:31:38.089Z,101526.13
2022-08-30T00:34:05.065Z,101513.47
2022-08-30T00:36:31.419Z,101517.38
2022-08-30T00:38:57.760Z,101516.75
2022-08-30T00:41:24.167Z,101514.09
2022-08-30T00:43:50.495Z,101514.53
2022-08-30T00:46:16.939Z,101517.44
2022-08-30T00:48:47.705Z,101514.25
2022-08-30T00:51:15.352Z,101521.72
2022-08-30T00:53:44.166Z,101520.50
2022-08-30T00:56:11.060Z,101515.16
2022-08-30T00:58:38.815Z,101516.72
2022-08-30T01:01:06.347Z,101513.97
2022-08-30T01:03:33.189Z,101524.63
2022-08-30T01:05:59.781Z,101523.69
2022-08-30T01:08:26.457Z,101523.75
2022-08-30T01:10:53.541Z,101531.38
2022-08-30T01:13:21.695Z,101527.88
2022-08-30T01:15:49.164Z,101533.06
2022-08-30T01:18:17.421Z,101533.78
2022-08-30T01:21:19.795Z,101528.31
2022-08-30T01:23:47.441Z,101530.13
2022-08-30T01:26:14.704Z,101524.69
2022-08-30T01:28:42.665Z,101527.31
2022-08-30T01:31:10.724Z,101525.00
2022-08-30T01:33:39.966Z,101531.66
2022-08-30T01:36:08.095Z,101527.75
2022-08-30T01:38:35.649Z,101529.94
2022-08-30T01:41:21.753Z,101523.97
2022-08-30T01:43:48.979Z,101521.69
2022-08-30T01:46:16.559Z,101530.97
2022-08-30T01:48:50.385Z,101519.94
2022-08-30T01:51:21.838Z,101529.34
2022-08-30T01:53:48.164Z,101531.38
2022-08-30T01:56:15.461Z,101530.38
2022-08-30T01:58:41.847Z,101532.31
2022-08-30T02:01:12.518Z,101528.66
2022-08-30T02:03:39.546Z,101533.81
2022-08-30T02:06:07.283Z,101525.22
2022-08-30T02:08:34.539Z,101516.50
2022-08-30T02:11:01.366Z,101522.22
2022-08-30T02:13:27.765Z,101515.41
2022-08-30T02:15:54.659Z,101516.81
2022-08-30T02:18:21.852Z,101521.41
2022-08-30T02:20:48.216Z,101512.94
2022-08-30T02:23:14.627Z,101521.91
2022-08-30T02:25:41.533Z,101526.03
2022-08-30T02:28:08.040Z,101522.88
2022-08-30T02:30:34.872Z,101520.38
2022-08-30T02:33:01.305Z,101521.25
2022-08-30T02:35:27.728Z,101522.88
2022-08-30T02:37:54.074Z,101522.94
2022-08-30T02:40:22.186Z,101520.56
2022-08-30T02:42:49.379Z,101519.53
2022-08-30T02:45:16.077Z,101519.63
2022-08-30T02:47:47.122Z,101507.41
2022-08-30T02:50:13.767Z,101512.69
2022-08-30T02:52:40.224Z,101511.75
2022-08-30T02:55:06.997Z,101516.75
2022-08-30T02:57:33.623Z,101513.53
2022-08-30T03:00:01.243Z,101513.66
2022-08-30T03:02:27.689Z,101512.41
2022-08-30T03:04:54.074Z,101513.00
2022-08-30T03:07:20.693Z,101512.50
2022-08-30T03:09:47.008Z,101516.50
2022-08-30T03:12:13.664Z,101510.09
2022-08-30T03:14:40.016Z,101512.38
2022-08-30T03:17:12.956Z,101503.97
2022-08-30T03:19:42.049Z,101503.81
2022-08-30T03:22:08.562Z,101512.44
2022-08-30T03:24:34.932Z,101518.78
2022-08-30T03:27:01.359Z,101522.97
2022-08-30T03:29:29.606Z,101521.84
2022-08-30T03:31:56.622Z,101517.97
2022-08-30T03:34:23.728Z,101524.97
2022-08-30T03:36:50.717Z,101524.66
2022-08-30T03:39:17.045Z,101520.03
2022-08-30T03:41:43.453Z,101521.69
2022-08-30T03:44:10.018Z,101522.63
2022-08-30T03:46:37.589Z,101521.31
2022-08-30T03:49:04.841Z,101519.09
2022-08-30T03:51:31.381Z,101528.66
2022-08-30T03:53:57.740Z,101538.38
2022-08-30T03:56:24.804Z,101535.22
2022-08-30T03:58:51.520Z,101538.56
2022-08-30T04:01:17.930Z,101530.84
2022-08-30T04:03:44.318Z,101534.69
2022-08-30T04:06:10.717Z,101532.59
2022-08-30T04:08:37.183Z,101533.16
2022-08-30T04:11:04.959Z,101527.31
2022-08-30T04:13:31.639Z,101532.47
2022-08-30T04:15:58.106Z,101535.66
2022-08-30T04:18:24.481Z,101538.69
2022-08-30T04:20:52.636Z,101541.28
2022-08-30T04:23:19.370Z,101549.25
2022-08-30T04:25:45.848Z,101548.75
2022-08-30T04:28:12.561Z,101543.06
2022-08-30T04:30:39.965Z,101547.94
2022-08-30T04:33:06.832Z,101540.91
2022-08-30T04:35:33.603Z,101538.97
2022-08-30T04:37:59.960Z,101544.50
2022-08-30T04:40:26.391Z,101547.41
2022-08-30T04:42:54.439Z,101551.00
2022-08-30T04:45:21.669Z,101547.16
2022-08-30T04:47:48.219Z,101549.06
2022-08-30T04:50:16.502Z,101547.53
2022-08-30T04:52:43.513Z,101558.84
2022-08-30T04:55:10.703Z,101554.34
2022-08-30T04:57:37.802Z,101560.19
2022-08-30T05:00:08.987Z,101561.91
2022-08-30T05:02:35.431Z,101560.63
2022-08-30T05:05:20.660Z,101566.78
2022-08-30T05:07:47.170Z,101557.13
2022-08-30T05:10:13.562Z,101569.28
2022-08-30T05:12:40.758Z,101561.06
2022-08-30T05:15:08.007Z,101571.88
2022-08-30T05:17:34.364Z,101571.50
2022-08-30T05:20:01.396Z,101571.53
2022-08-30T05:22:28.030Z,101570.25
2022-08-30T05:24:54.363Z,101575.09
2022-08-30T05:27:20.743Z,101583.50
2022-08-30T05:29:47.139Z,101577.69
2022-08-30T05:32:13.496Z,101576.75
2022-08-30T05:34:39.846Z,101576.16
2022-08-30T05:37:06.209Z,101582.66
2022-08-30T05:39:50.664Z,101585.09
2022-08-30T05:42:18.366Z,101593.13
2022-08-30T05:44:44.714Z,101586.25
2022-08-30T05:47:11.069Z,101594.41
2022-08-30T05:49:37.416Z,101592.41
2022-08-30T05:52:04.189Z,101589.88
2022-08-30T05:54:30.551Z,101594.81
2022-08-30T05:56:56.905Z,101591.25
2022-08-30T05:59:23.240Z,101594.41
2022-08-30T06:01:49.861Z,101600.41
2022-08-30T06:04:16.571Z,101592.78
2022-08-30T06:06:43.856Z,101600.50
2022-08-30T06:09:11.488Z,101594.34
2022-08-30T06:11:37.899Z,101604.53
2022-08-30T06:14:04.660Z,101596.97
2022-08-30T06:16:31.059Z,101603.78
2022-08-30T06:18:58.363Z,101600.72
2022-08-30T06:21:26.009Z,101610.59
2022-08-30T06:23:52.929Z,101601.47
2022-08-30T06:26:19.381Z,101602.78
2022-08-30T06:28:45.862Z,101605.19
2022-08-30T06:31:13.382Z,101618.22
2022-08-30T06:33:40.307Z,101612.63
2022-08-30T06:36:08.687Z,101618.78
2022-08-30T06:38:35.553Z,101621.94
2022-08-30T06:41:05.769Z,101609.41
2022-08-30T06:43:32.126Z,101620.50
2022-08-30T06:46:10.872Z,101622.50
2022-08-30T06:48:39.222Z,101633.00
2022-08-30T06:51:06.264Z,101634.22
2022-08-30T06:53:33.674Z,101631.81
2022-08-30T06:56:10.330Z,101634.38
2022-08-30T06:58:37.917Z,101632.25
2022-08-30T07:01:05.258Z,101641.94
2022-08-30T07:03:31.690Z,101642.97
2022-08-30T07:05:58.127Z,101641.25
2022-08-30T07:08:25.411Z,101652.53
2022-08-30T07:10:53.956Z,101644.22
2022-08-30T07:13:22.360Z,101649.66
2022-08-30T07:15:48.808Z,101646.72
2022-08-30T07:18:33.754Z,101659.06
2022-08-30T07:21:05.836Z,101653.09
2022-08-30T07:23:32.187Z,101659.06
2022-08-30T07:25:58.749Z,101654.88
2022-08-30T07:28:25.149Z,101660.69
2022-08-30T07:30:51.550Z,101658.75
2022-08-30T07:33:18.035Z,101657.97
2022-08-30T07:35:44.601Z,101665.06
2022-08-30T07:38:14.442Z,101668.16
2022-08-30T07:40:42.756Z,101672.13
2022-08-30T07:43:09.261Z,101668.47
2022-08-30T07:45:36.792Z,101669.84
2022-08-30T07:48:03.405Z,101670.16
2022-08-30T07:50:30.122Z,101673.31
2022-08-30T07:52:56.483Z,101670.22
2022-08-30T07:55:22.892Z,101667.38
2022-08-30T07:57:49.383Z,101679.63
2022-08-30T08:00:16.050Z,101670.03
2022-08-30T08:02:42.537Z,101674.44
2022-08-30T08:05:12.802Z,101684.66
2022-08-30T08:07:42.912Z,101690.34
2022-08-30T08:10:10.187Z,101684.78
2022-08-30T08:12:36.590Z,101684.59
2022-08-30T08:15:06.646Z,101682.34
2022-08-30T08:17:35.237Z,101700.81
2022-08-30T08:20:01.771Z,101687.19
2022-08-30T08:22:28.122Z,101690.63
2022-08-30T08:24:54.575Z,101693.34
2022-08-30T08:27:20.956Z,101693.34
2022-08-30T08:29:47.405Z,101692.91
2022-08-30T08:32:13.759Z,101684.59
2022-08-30T08:34:41.408Z,101690.34
2022-08-30T08:37:07.832Z,101687.00
2022-08-30T08:39:34.216Z,101692.50
2022-08-30T08:42:00.552Z,101696.06
2022-08-30T08:44:34.266Z,101695.25
2022-08-30T08:47:11.640Z,101691.25
2022-08-30T08:49:40.921Z,101696.16
2022-08-30T08:52:26.695Z,101702.25
2022-08-30T08:54:56.380Z,101697.06
2022-08-30T08:57:25.745Z,101703.59
2022-08-30T08:59:54.286Z,101707.56
2022-08-30T09:02:26.504Z,101713.25
2022-08-30T09:04:58.653Z,101723.50
2022-08-30T09:07:27.936Z,101721.22
2022-08-30T09:09:54.398Z,101724.91
2022-08-30T09:12:22.402Z,101724.56
2022-08-30T09:17:50.140Z,101723.84
2022-08-30T09:20:24.505Z,101722.28
2022-08-30T09:22:50.873Z,101718.66
2022-08-30T09:25:20.005Z,101721.03
2022-08-30T09:27:47.492Z,101713.59
2022-08-30T09:30:27.263Z,101714.31
2022-08-30T09:32:54.263Z,101717.16
2022-08-30T09:35:22.877Z,101718.28
2022-08-30T09:37:56.614Z,101716.66
2022-08-30T09:40:35.920Z,101716.97
2022-08-30T09:43:06.034Z,101722.34
2022-08-30T09:45:35.966Z,101719.66
2022-08-30T09:48:21.036Z,101724.13
2022-08-30T09:50:49.097Z,101719.47
2022-08-30T09:53:23.874Z,101723.44
2022-08-30T09:55:50.305Z,101723.06
2022-08-30T09:58:25.674Z,101736.59
2022-08-30T10:00:55.759Z,101736.59
2022-08-30T10:03:35.821Z,101731.00
2022-08-30T10:06:12.457Z,101731.00
2022-08-30T10:08:44.765Z,101739.38
2022-08-30T10:11:23.681Z,101738.94
2022-08-30T10:13:51.516Z,101732.75
2022-08-30T10:16:36.841Z,101741.47
2022-08-30T10:19:04.301Z,101733.84
2022-08-30T10:21:39.391Z,101746.75
2022-08-30T10:24:08.354Z,101743.66
2022-08-30T10:26:36.805Z,101737.66
2022-08-30T10:29:15.237Z,101740.00
2022-08-30T10:31:42.524Z,101748.09
2022-08-30T10:34:12.092Z,101740.53
2022-08-30T10:36:50.929Z,101742.06
2022-08-30T10:39:22.258Z,101740.31
2022-08-30T10:41:50.810Z,101741.09
2022-08-30T10:44:27.218Z,101737.03
2022-08-30T10:47:02.754Z,101744.38
2022-08-30T10:49:31.563Z,101750.38
2022-08-30T10:52:12.292Z,101748.88
2022-08-30T10:54:44.307Z,101751.19
2022-08-30T10:57:10.793Z,101746.44
2022-08-30T10:59:38.414Z,101742.81
2022-08-30T11:02:15.475Z,101749.31
2022-08-30T11:05:00.874Z,101743.47
2022-08-30T11:07:27.351Z,101746.28
2022-08-30T11:10:12.787Z,101740.25
2022-08-30T11:12:58.453Z,101744.47
2022-08-30T11:15:30.656Z,101746.22
2022-08-30T11:18:02.804Z,101749.66
2022-08-30T11:20:29.303Z,101745.09
2022-08-30T11:23:25.310Z,101742.19
2022-08-30T11:25:57.857Z,101744.53
2022-08-30T11:28:50.762Z,101748.88
2022-08-30T11:34:09.925Z,101744.44
2022-08-30T11:36:45.985Z,101752.03
2022-08-30T11:39:32.624Z,101750.53
2022-08-30T11:42:12.646Z,101750.00
2022-08-30T11:44:40.528Z,101750.03
2022-08-30T11:47:36.027Z,101755.91
2022-08-30T11:50:22.975Z,101746.84
2022-08-30T11:53:34.236Z,101745.69
2022-08-30T11:56:08.710Z,101735.47
2022-08-30T11:58:51.549Z,101732.31
2022-08-30T12:01:50.971Z,101740.19
2022-08-30T12:04:15.407Z,101742.59
2022-08-30T12:06:41.941Z,101733.13
2022-08-30T12:09:30.229Z,101745.72
2022-08-30T12:12:07.386Z,101742.69
2022-08-30T12:14:36.893Z,101736.78
2022-08-30T12:17:31.708Z,101741.66
2022-08-30T12:19:59.814Z,101747.72
2022-08-30T12:22:27.145Z,101748.50
2022-08-30T12:24:54.599Z,101737.06
2022-08-30T12:27:33.246Z,101742.25
2022-08-30T12:30:05.988Z,101734.28
2022-08-30T12:32:32.954Z,101743.94
2022-08-30T12:35:00.778Z,101734.06
2022-08-30T12:37:27.122Z,101740.09
2022-08-30T12:40:08.725Z,101740.53
2022-08-30T12:42:37.238Z,101739.78
2022-08-30T12:45:07.831Z,101742.19
2022-08-30T12:47:45.091Z,101742.19
2022-08-30T12:50:15.450Z,101738.66
2022-08-30T12:52:48.185Z,101732.38
2022-08-30T12:55:20.030Z,101735.97
2022-08-30T12:58:00.526Z,101742.72
2022-08-30T13:00:32.926Z,101728.84
2022-08-30T13:03:02.420Z,101732.78
2022-08-30T13:05:29.983Z,101725.69
2022-08-30T13:08:15.928Z,101724.91
2022-08-30T13:10:52.221Z,101718.53
2022-08-30T13:13:32.933Z,101726.47
2022-08-30T13:16:09.938Z,101723.28
2022-08-30T13:18:36.400Z,101720.13
2022-08-30T13:21:32.518Z,101715.44
2022-08-30T13:24:00.258Z,101716.56
2022-08-30T13:26:29.315Z,101706.59
2022-08-30T13:28:58.872Z,101722.84
2022-08-30T13:31:26.717Z,101714.88
2022-08-30T13:33:54.001Z,101709.22
2022-08-30T13:36:28.211Z,101707.34
2022-08-30T13:38:55.373Z,101710.50
2022-08-30T13:41:21.966Z,101707.72
2022-08-30T13:46:35.910Z,101707.56
2022-08-30T13:49:04.754Z,101707.88
2022-08-30T13:51:31.638Z,101705.94
2022-08-30T13:53:58.323Z,101710.41
2022-08-30T13:56:25.650Z,101711.56
2022-08-30T13:58:52.021Z,101707.03
2022-08-30T14:01:19.282Z,101709.50
2022-08-30T14:06:34.345Z,101706.34
2022-08-30T14:09:03.884Z,101707.09
2022-08-30T14:11:31.143Z,101709.53
2022-08-30T14:16:44.531Z,101706.13
2022-08-30T14:19:12.400Z,101715.16
2022-08-30T14:21:38.859Z,101712.34
2022-08-30T14:24:06.389Z,101710.34
2022-08-30T14:26:39.401Z,101716.34
2022-08-30T14:29:09.282Z,101712.00
2022-08-30T14:31:36.253Z,101712.78
2022-08-30T14:34:05.139Z,101712.09
2022-08-30T14:36:32.648Z,101718.47
2022-08-30T14:38:59.954Z,101718.00
2022-08-30T14:41:27.041Z,101720.06
2022-08-30T14:43:53.446Z,101708.47
2022-08-30T14:46:20.149Z,101708.56
2022-08-30T14:48:47.041Z,101708.78
2022-08-30T14:51:14.911Z,101708.84
2022-08-30T14:53:41.526Z,101702.91
2022-08-30T14:56:12.433Z,101699.00
2022-08-30T14:58:39.339Z,101706.09
2022-08-30T15:01:06.768Z,101705.22
2022-08-30T15:03:33.371Z,101701.63
2022-08-30T15:06:00.858Z,101704.56
2022-08-30T15:08:27.369Z,101706.81
2022-08-30T15:10:53.814Z,101698.56
2022-08-30T15:13:20.239Z,101701.75
2022-08-30T15:15:49.389Z,101704.84
2022-08-30T15:18:17.049Z,101698.41
2022-08-30T15:20:47.754Z,101701.66
2022-08-30T15:23:14.483Z,101697.69
2022-08-30T15:25:43.540Z,101687.63
2022-08-30T15:28:09.997Z,101691.97
2022-08-30T15:30:36.752Z,101693.91
2022-08-30T15:33:03.170Z,101693.91
2022-08-30T15:35:29.615Z,101696.66
2022-08-30T15:37:57.485Z,101695.91
2022-08-30T15:40:24.616Z,101695.50
2022-08-30T15:42:52.887Z,101699.13
2022-08-30T15:45:19.320Z,101695.56
2022-08-30T15:47:46.076Z,101685.59
2022-08-30T15:50:13.657Z,101692.75
2022-08-30T15:52:40.093Z,101693.44
2022-08-30T15:55:06.850Z,101690.00
2022-08-30T15:57:33.305Z,101690.44
2022-08-30T15:59:59.700Z,101690.81
2022-08-30T16:02:27.851Z,101696.81
2022-08-30T16:04:54.520Z,101697.63
2022-08-30T16:07:21.005Z,101692.22
2022-08-30T16:09:47.466Z,101684.31
2022-08-30T16:12:22.325Z,101683.50
2022-08-30T16:14:50.462Z,101685.09
2022-08-30T16:17:17.099Z,101676.34
2022-08-30T16:19:44.669Z,101684.75
2022-08-30T16:22:11.392Z,101681.19
2022-08-30T16:24:38.266Z,101686.31
2022-08-30T16:27:05.621Z,101690.66
2022-08-30T16:29:35.122Z,101683.94
2022-08-30T16:32:01.591Z,101679.53
2022-08-30T16:34:28.024Z,101679.41
2022-08-30T16:36:54.543Z,101685.88
2022-08-30T16:39:20.973Z,101680.22
2022-08-30T16:41:47.501Z,101676.69
2022-08-30T16:44:15.952Z,101678.63
2022-08-30T16:46:42.765Z,101674.56
2022-08-30T16:49:10.576Z,101677.00
2022-08-30T16:51:38.097Z,101678.94
2022-08-30T16:54:07.674Z,101668.66
2022-08-30T16:56:35.222Z,101675.31
2022-08-30T16:59:03.170Z,101668.28
2022-08-30T17:01:32.367Z,101667.47
2022-08-30T17:04:01.203Z,101667.41
2022-08-30T17:06:27.766Z,101670.00
2022-08-30T17:08:56.358Z,101671.66
2022-08-30T17:11:24.037Z,101671.16
2022-08-30T17:13:50.861Z,101667.22
2022-08-30T17:16:17.710Z,101669.47
2022-08-30T17:18:53.820Z,101676.56
2022-08-30T17:21:20.308Z,101666.56
2022-08-30T17:23:49.246Z,101661.19
2022-08-30T17:26:16.532Z,101670.72
2022-08-30T17:28:45.811Z,101679.63
2022-08-30T17:31:14.762Z,101671.69
2022-08-30T17:33:43.005Z,101674.59
2022-08-30T17:36:11.841Z,101673.69
2022-08-30T17:38:38.282Z,101665.63
2022-08-30T17:41:11.333Z,101673.47
2022-08-30T17:43:37.748Z,101676.50
2022-08-30T17:46:05.430Z,101682.19
2022-08-30T17:48:31.896Z,101680.31
2022-08-30T17:50:58.420Z,101684.44
2022-08-30T17:53:25.248Z,101681.28
2022-08-30T17:55:52.004Z,101682.41
2022-08-30T17:58:18.679Z,101686.84
2022-08-30T18:00:50.221Z,101683.56
2022-08-30T18:03:17.444Z,101696.38
2022-08-30T18:05:47.017Z,101695.56
2022-08-30T18:08:13.954Z,101700.25
2022-08-30T18:10:40.673Z,101704.44
2022-08-30T18:13:07.145Z,101699.31
2022-08-30T18:15:33.859Z,101704.78
2022-08-30T18:18:00.829Z,101709.50
2022-08-30T18:20:31.428Z,101721.06
2022-08-30T18:22:57.938Z,101717.69
2022-08-30T18:25:24.351Z,101708.06
2022-08-30T18:27:59.090Z,101708.81
2022-08-30T18:30:31.186Z,101711.38
2022-08-30T18:33:00.544Z,101706.13
2022-08-30T18:35:29.625Z,101702.94
2022-08-30T18:37:57.302Z,101713.88
2022-08-30T18:40:23.761Z,101711.47
2022-08-30T18:42:50.723Z,101709.00
2022-08-30T18:45:17.410Z,101714.28
2022-08-30T18:47:45.003Z,101713.81
2022-08-30T18:50:12.474Z,101717.94
2022-08-30T18:52:38.993Z,101714.47
2022-08-30T18:55:06.930Z,101725.44
2022-08-30T18:57:34.977Z,101718.81
2022-08-30T19:00:03.568Z,101724.56
2022-08-30T19:02:30.027Z,101713.81
2022-08-30T19:04:56.669Z,101719.91
2022-08-30T19:07:26.756Z,101718.91
2022-08-30T19:12:43.735Z,101714.53
2022-08-30T19:15:11.445Z,101721.09
2022-08-30T19:17:39.067Z,101713.25
2022-08-30T19:20:09.915Z,101709.31
2022-08-30T19:25:24.191Z,101716.78
2022-08-30T19:27:51.345Z,101713.72
2022-08-30T19:30:29.364Z,101710.88
2022-08-30T19:32:57.197Z,101717.59
2022-08-30T19:35:24.399Z,101723.66
2022-08-30T19:37:50.824Z,101727.22
2022-08-30T19:40:18.928Z,101736.41
2022-08-30T19:42:45.839Z,101739.09
2022-08-30T19:45:14.069Z,101737.22
2022-08-30T19:47:40.550Z,101739.84
2022-08-30T19:50:07.191Z,101740.28
2022-08-30T19:52:36.195Z,101749.56
2022-08-30T19:55:04.705Z,101749.06
2022-08-30T19:57:31.525Z,101740.81
2022-08-30T19:59:57.908Z,101746.72
2022-08-30T20:02:24.667Z,101749.13
2022-08-30T20:04:53.895Z,101743.63
2022-08-30T20:07:25.231Z,101752.47
2022-08-30T20:09:53.908Z,101746.78
2022-08-30T20:12:20.375Z,101738.84
2022-08-30T20:14:47.391Z,101751.09
2022-08-30T20:17:14.527Z,101754.72
2022-08-30T20:19:41.753Z,101750.34
2022-08-30T20:22:08.616Z,101750.34
2022-08-30T20:24:31.960Z,101716.50
2022-08-30T20:24:33.330Z,101720.06
2022-08-30T20:27:03.628Z,101753.69
2022-08-30T20:29:30.267Z,101757.13
2022-08-30T20:31:56.956Z,101749.56
2022-08-30T20:34:27.419Z,101750.69
2022-08-30T20:36:55.361Z,101754.78
2022-08-30T20:39:22.397Z,101748.41
2022-08-30T20:41:48.913Z,101753.47
2022-08-30T20:44:16.206Z,101749.72
2022-08-30T20:46:43.789Z,101750.84
2022-08-30T20:49:10.692Z,101754.56
2022-08-30T20:51:37.230Z,101755.38
2022-08-30T20:54:06.219Z,101760.28
2022-08-30T20:56:34.318Z,101767.38
2022-08-30T20:59:02.564Z,101759.97
2022-08-30T21:01:30.667Z,101763.09
2022-08-30T21:03:57.122Z,101756.19
2022-08-30T21:06:23.670Z,101764.56
2022-08-30T21:08:50.029Z,101755.91
2022-08-30T21:11:16.490Z,101762.16
2022-08-30T21:13:43.659Z,101755.91
2022-08-30T21:16:09.998Z,101758.19
2022-08-30T21:18:38.803Z,101766.09
2022-08-30T21:21:12.552Z,101758.38
2022-08-30T21:23:39.362Z,101763.63
2022-08-30T21:26:06.547Z,101762.09
2022-08-30T21:28:33.556Z,101766.84
2022-08-30T21:31:07.791Z,101759.97
2022-08-30T21:33:34.550Z,101770.09
2022-08-30T21:36:19.553Z,101766.84
2022-08-30T21:38:45.954Z,101768.44
2022-08-30T21:41:12.774Z,101764.13
2022-08-30T21:43:39.191Z,101760.97
2022-08-30T21:46:06.948Z,101767.84
2022-08-30T21:48:33.824Z,101768.22
2022-08-30T21:51:07.894Z,101762.91
2022-08-30T21:53:34.643Z,101770.81
2022-08-30T21:56:13.464Z,101773.16
2022-08-30T21:58:43.951Z,101774.31
2022-08-30T22:01:15.209Z,101773.38
2022-08-30T22:03:44.316Z,101769.44
2022-08-30T22:06:11.701Z,101769.00
2022-08-30T22:08:39.465Z,101769.16
2022-08-30T22:11:08.037Z,101770.81
2022-08-30T22:13:35.285Z,101778.97
2022-08-30T22:16:01.990Z,101777.66
2022-08-30T22:18:28.376Z,101784.72
2022-08-30T22:20:54.776Z,101779.97
2022-08-30T22:23:23.162Z,101771.56
2022-08-30T22:25:51.581Z,101780.88
2022-08-30T22:28:18.723Z,101780.78
2022-08-30T22:30:45.443Z,101779.81
2022-08-30T22:33:11.872Z,101787.38
2022-08-30T22:35:38.996Z,101785.34
2022-08-30T22:38:05.801Z,101789.69
2022-08-30T22:40:32.355Z,101784.44
2022-08-30T22:42:59.968Z,101783.22
2022-08-30T22:45:27.241Z,101787.56
2022-08-30T22:47:53.918Z,101786.16
2022-08-30T22:50:20.434Z,101791.31
2022-08-30T22:52:46.897Z,101796.41
2022-08-30T22:55:13.338Z,101788.38
2022-08-30T22:57:39.810Z,101792.41
2022-08-30T23:00:10.455Z,101793.59
2022-08-30T23:02:37.003Z,101798.56
2022-08-30T23:05:04.551Z,101794.91
2022-08-30T23:07:31.142Z,101798.50
2022-08-30T23:09:59.103Z,101803.78
2022-08-30T23:12:26.035Z,101814.91
2022-08-30T23:14:53.125Z,101806.88
2022-08-30T23:17:19.974Z,101815.91
2022-08-30T23:19:46.686Z,101808.16
2022-08-30T23:22:13.698Z,101805.63
2022-08-30T23:24:58.985Z,101799.13
2022-08-30T23:27:44.744Z,101804.31
2022-08-30T23:30:29.946Z,101805.00
2022-08-30T23:33:14.894Z,101804.91
2022-08-30T23:35:59.573Z,101803.22
2022-08-30T23:38:44.332Z,101796.97
2022-08-30T23:41:33.866Z,101787.00
2022-08-30T23:44:19.341Z,101795.03
2022-08-30T23:47:04.070Z,101790.59
2022-08-30T23:49:48.801Z,101796.56
2022-08-30T23:52:33.498Z,101791.81
2022-08-30T23:55:18.412Z,101792.81
2022-08-30T23:58:03.177Z,101801.44
